createdAt,value
2022-09-14T00:02:08.453Z,99153.06
2022-09-14T00:07:10.383Z,99147.13
2022-09-14T00:12:11.962Z,99143.50
2022-09-14T00:17:13.806Z,99138.22
2022-09-14T00:22:15.378Z,99137.75
2022-09-14T00:27:17.144Z,99126.63
2022-09-14T00:32:19.057Z,99136.00
2022-09-14T00:37:20.699Z,99134.34
2022-09-14T00:42:22.245Z,99117.66
2022-09-14T00:47:24.217Z,99115.44
2022-09-14T00:52:30.297Z,99111.03
2022-09-14T00:57:40.526Z,99110.44
2022-09-14T01:02:42.382Z,99105.44
2022-09-14T01:07:58.434Z,99104.50
2022-09-14T01:13:29.446Z,99106.59
2022-09-14T01:18:56.611Z,99106.84
2022-09-14T01:24:21.903Z,99110.75
2022-09-14T01:29:50.022Z,99099.50
2022-09-14T01:35:15.233Z,99088.25
2022-09-14T01:40:43.495Z,99089.44
2022-09-14T01:45:52.814Z,99086.34
2022-09-14T01:50:58.371Z,99093.34
2022-09-14T01:56:20.389Z,99087.53
2022-09-14T02:01:28.025Z,99079.25
2022-09-14T02:06:40.600Z,99068.31
2022-09-14T02:11:42.458Z,99064.94
2022-09-14T02:16:46.260Z,99063.47
2022-09-14T02:21:48.076Z,99058.44
2022-09-14T02:26:52.059Z,99061.97
2022-09-14T02:31:59.346Z,99046.94
2022-09-14T02:37:12.234Z,99045.63
2022-09-14T02:42:13.726Z,99042.38
2022-09-14T02:47:18.234Z,99044.41
2022-09-14T02:52:24.500Z,99039.09
2022-09-14T02:57:26.156Z,99045.88
2022-09-14T03:02:27.698Z,99043.09
2022-09-14T03:07:29.271Z,99060.38
2022-09-14T03:12:30.876Z,99053.28
2022-09-14T03:17:32.740Z,99042.78
2022-09-14T03:22:34.468Z,99048.81
2022-09-14T03:27:36.049Z,99052.41
2022-09-14T03:32:38.283Z,99053.28
2022-09-14T03:37:41.811Z,99053.59
2022-09-14T03:42:48.468Z,99048.72
2022-09-14T03:47:50.260Z,99031.66
2022-09-14T03:52:51.770Z,99029.66
2022-09-14T03:57:54.694Z,99025.94
2022-09-14T04:02:56.498Z,99022.09
2022-09-14T04:07:58.124Z,99023.59
2022-09-14T04:13:00.112Z,99007.16
2022-09-14T04:18:01.645Z,99008.44
2022-09-14T04:23:03.228Z,99005.13
2022-09-14T04:28:19.629Z,99009.16
2022-09-14T04:33:21.993Z,98996.22
2022-09-14T04:38:23.953Z,99002.72
2022-09-14T04:43:26.933Z,98991.03
2022-09-14T04:48:29.245Z,98980.44
2022-09-14T04:53:33.641Z,98991.31
2022-09-14T04:58:39.460Z,98989.56
2022-09-14T05:03:41.899Z,98985.84
2022-09-14T05:08:44.237Z,98991.59
2022-09-14T05:13:49.712Z,98985.88
2022-09-14T05:18:54.667Z,98976.97
2022-09-14T05:23:58.559Z,98978.53
2022-09-14T05:29:01.864Z,98979.69
2022-09-14T05:34:03.481Z,98979.59
2022-09-14T05:39:06.162Z,98982.84
2022-09-14T05:44:07.820Z,98987.09
2022-09-14T05:49:09.444Z,98976.28
2022-09-14T05:54:12.172Z,98979.16
2022-09-14T05:59:13.904Z,98974.63
2022-09-14T06:04:15.597Z,98980.81
2022-09-14T06:09:17.181Z,98976.19
2022-09-14T06:14:20.805Z,98968.66
2022-09-14T06:19:22.333Z,98963.50
2022-09-14T06:24:23.846Z,98961.06
2022-09-14T06:29:26.145Z,98954.53
2022-09-14T06:34:27.921Z,98960.06
2022-09-14T06:39:29.619Z,98961.75
2022-09-14T06:44:32.618Z,98965.31
2022-09-14T06:49:34.370Z,98965.78
2022-09-14T06:54:35.978Z,98966.19
2022-09-14T06:59:37.507Z,98970.28
2022-09-14T07:04:39.194Z,98972.59
2022-09-14T07:09:41.029Z,98971.13
2022-09-14T07:14:42.566Z,98965.66
2022-09-14T07:19:44.085Z,98956.97
2022-09-14T07:24:45.611Z,98954.34
2022-09-14T07:29:47.452Z,98948.19
2022-09-14T07:34:49.162Z,98954.13
2022-09-14T07:39:50.903Z,98950.97
2022-09-14T07:44:52.609Z,98950.84
2022-09-14T07:49:54.233Z,98955.81
2022-09-14T07:54:56.153Z,98954.97
2022-09-14T07:59:58.498Z,98961.13
2022-09-14T08:05:00.099Z,98964.81
2022-09-14T08:10:02.164Z,98952.03
2022-09-14T08:15:04.936Z,98957.34
2022-09-14T08:20:07.164Z,98960.47
2022-09-14T08:25:09.338Z,98957.41
2022-09-14T08:30:13.386Z,98961.53
2022-09-14T08:35:14.915Z,98961.34
2022-09-14T08:40:18.111Z,98963.78
2022-09-14T08:45:19.747Z,98958.53
2022-09-14T08:50:22.066Z,98960.81
2022-09-14T08:55:23.524Z,98948.31
2022-09-14T09:00:34.660Z,98949.38
2022-09-14T09:05:46.956Z,98951.19
2022-09-14T09:10:52.265Z,98946.88
2022-09-14T09:15:58.101Z,98952.56
2022-09-14T09:21:05.829Z,98954.81
2022-09-14T09:26:16.819Z,98942.38
2022-09-14T09:31:23.140Z,98933.94
2022-09-14T09:36:46.861Z,98943.13
2022-09-14T09:41:56.416Z,98935.91
2022-09-14T09:47:01.024Z,98932.56
2022-09-14T09:52:09.761Z,98931.38
2022-09-14T09:57:23.740Z,98923.84
2022-09-14T10:02:31.236Z,98918.56
2022-09-14T10:07:39.800Z,98911.78
2022-09-14T10:12:47.939Z,98904.78
2022-09-14T10:17:57.006Z,98910.69
2022-09-14T10:23:18.610Z,98914.16
2022-09-14T10:28:32.682Z,98909.44
2022-09-14T10:33:35.316Z,98900.50
2022-09-14T10:38:45.916Z,98897.75
2022-09-14T10:44:02.706Z,98900.88
2022-09-14T10:49:18.341Z,98911.50
2022-09-14T10:54:32.580Z,98925.66
2022-09-14T11:00:00.237Z,98930.78
2022-09-14T11:05:40.417Z,98928.56
2022-09-14T11:10:47.068Z,98925.22
2022-09-14T11:16:10.349Z,98915.91
2022-09-14T11:21:38.038Z,98902.56
2022-09-14T11:27:04.728Z,98876.97
2022-09-14T11:32:27.503Z,98894.22
2022-09-14T11:37:50.072Z,98893.50
2022-09-14T11:43:09.228Z,98883.59
2022-09-14T11:48:42.312Z,98868.41
2022-09-14T11:53:46.268Z,98879.41
2022-09-14T11:58:47.970Z,98878.66
2022-09-14T12:03:54.496Z,98868.38
2022-09-14T12:09:16.544Z,98868.41
2022-09-14T12:14:29.753Z,98874.91
2022-09-14T12:19:32.131Z,98857.06
2022-09-14T12:24:39.833Z,98855.25
2022-09-14T12:29:41.483Z,98846.16
2022-09-14T12:34:43.097Z,98846.78
2022-09-14T12:40:31.406Z,98851.47
2022-09-14T12:45:51.698Z,98842.38
2022-09-14T12:50:54.749Z,98849.50
2022-09-14T12:56:06.993Z,98836.59
2022-09-14T13:01:14.825Z,98827.66
2022-09-14T13:06:18.096Z,98819.44
2022-09-14T13:11:38.810Z,98806.66
2022-09-14T13:16:44.874Z,98810.13
2022-09-14T13:21:49.779Z,98812.34
2022-09-14T13:26:52.259Z,98806.25
2022-09-14T13:31:59.701Z,98805.97
2022-09-14T13:37:06.300Z,98802.03
2022-09-14T13:42:09.387Z,98808.84
2022-09-14T13:47:17.158Z,98800.28
2022-09-14T13:52:38.561Z,98792.19
2022-09-14T13:58:07.627Z,98783.50
2022-09-14T14:03:24.520Z,98776.38
2022-09-14T14:08:44.119Z,98781.81
2022-09-14T14:13:45.724Z,98767.22
2022-09-14T14:18:58.155Z,98769.84
2022-09-14T14:24:28.105Z,98766.59
2022-09-14T14:29:29.651Z,98767.22
2022-09-14T14:34:31.822Z,98760.72
2022-09-14T14:39:33.408Z,98753.59
2022-09-14T14:44:35.058Z,98756.88
2022-09-14T14:49:36.938Z,98758.53
2022-09-14T14:54:40.994Z,98755.63
2022-09-14T14:59:42.674Z,98753.34
2022-09-14T15:04:44.252Z,98752.88
2022-09-14T15:09:45.826Z,98750.22
2022-09-14T15:14:47.355Z,98751.69
2022-09-14T15:19:49.059Z,98746.38
2022-09-14T15:24:50.603Z,98743.72
2022-09-14T15:29:52.249Z,98738.25
2022-09-14T15:34:53.933Z,98747.09
2022-09-14T15:39:55.569Z,98735.41
2022-09-14T15:44:57.212Z,98739.38
2022-09-14T15:49:59.867Z,98731.41
2022-09-14T15:55:01.541Z,98737.56
2022-09-14T16:00:08.029Z,98729.22
2022-09-14T16:05:16.182Z,98728.63
2022-09-14T16:10:17.849Z,98734.06
2022-09-14T16:15:19.554Z,98726.69
2022-09-14T16:20:21.537Z,98726.94
2022-09-14T16:25:23.105Z,98712.91
2022-09-14T16:30:24.647Z,98707.00
2022-09-14T16:35:26.266Z,98712.91
2022-09-14T16:40:27.966Z,98704.25
2022-09-14T16:45:29.778Z,98707.56
2022-09-14T16:50:31.338Z,98692.41
2022-09-14T16:55:32.912Z,98686.13
2022-09-14T17:00:35.415Z,98673.34
2022-09-14T17:05:37.024Z,98681.28
2022-09-14T17:10:38.585Z,98675.94
2022-09-14T17:15:40.106Z,98671.56
2022-09-14T17:20:54.258Z,98673.28
2022-09-14T17:25:56.452Z,98672.25
2022-09-14T17:30:59.871Z,98666.13
2022-09-14T17:36:03.534Z,98658.53
2022-09-14T17:41:17.587Z,98649.00
2022-09-14T17:46:21.624Z,98643.19
2022-09-14T17:51:25.332Z,98656.19
2022-09-14T17:56:28.844Z,98649.84
2022-09-14T18:01:31.022Z,98637.78
2022-09-14T18:06:38.400Z,98631.47
2022-09-14T18:11:40.645Z,98639.34
2022-09-14T18:16:44.150Z,98643.59
2022-09-14T18:21:50.208Z,98634.06
2022-09-14T18:26:53.288Z,98628.88
2022-09-14T18:31:54.933Z,98624.22
2022-09-14T18:36:56.652Z,98633.88
2022-09-14T18:41:58.959Z,98631.59
2022-09-14T18:47:00.791Z,98628.47
2022-09-14T18:52:03.002Z,98639.34
2022-09-14T18:57:04.719Z,98646.78
2022-09-14T19:02:06.419Z,98638.00
2022-09-14T19:07:08.574Z,98631.75
2022-09-14T19:17:34.291Z,98617.25
2022-09-14T19:22:35.928Z,98619.00
2022-09-14T19:27:37.584Z,98613.56
2022-09-14T19:32:39.240Z,98620.28
2022-09-14T19:37:40.811Z,98618.09
2022-09-14T19:42:42.408Z,98613.22
2022-09-14T19:47:44.170Z,98599.41
2022-09-14T19:52:45.872Z,98586.59
2022-09-14T19:57:48.289Z,98594.53
2022-09-14T20:02:49.933Z,98570.28
2022-09-14T20:07:51.549Z,98570.94
2022-09-14T20:12:54.329Z,98568.97
2022-09-14T20:17:56.189Z,98576.34
2022-09-14T20:22:57.688Z,98584.28
2022-09-14T20:27:59.268Z,98596.75
2022-09-14T20:33:00.885Z,98595.16
2022-09-14T20:38:02.399Z,98583.84
2022-09-14T20:43:05.163Z,98587.91
2022-09-14T20:48:06.737Z,98581.47
2022-09-14T20:53:08.289Z,98583.88
2022-09-14T20:58:09.991Z,98587.78
2022-09-14T21:03:12.745Z,98598.28
2022-09-14T21:08:14.372Z,98609.53
2022-09-14T21:13:16.010Z,98620.50
2022-09-14T21:18:20.736Z,98622.91
2022-09-14T21:23:22.411Z,98615.34
2022-09-14T21:28:24.285Z,98607.31
2022-09-14T21:33:25.752Z,98623.91
2022-09-14T21:38:27.251Z,98645.03
2022-09-14T21:43:29.329Z,98655.78
2022-09-14T21:48:31.083Z,98658.31
2022-09-14T21:53:33.429Z,98649.22
2022-09-14T21:58:34.936Z,98648.72
2022-09-14T22:03:37.039Z,98633.19
2022-09-14T22:08:39.243Z,98645.75
2022-09-14T22:13:41.238Z,98636.44
2022-09-14T22:18:48.977Z,98649.22
2022-09-14T22:23:57.517Z,98650.72
2022-09-14T22:28:59.641Z,98653.97
2022-09-14T22:34:01.275Z,98663.50
2022-09-14T22:39:04.665Z,98656.75
2022-09-14T22:44:07.441Z,98660.22
2022-09-14T22:49:09.769Z,98662.03
2022-09-14T22:54:11.392Z,98668.47
2022-09-14T22:59:13.051Z,98680.97
2022-09-14T23:04:14.700Z,98679.38
2022-09-14T23:09:18.869Z,98670.47
2022-09-14T23:14:20.458Z,98667.16
2022-09-14T23:19:22.104Z,98675.38
2022-09-14T23:24:23.796Z,98673.38
2022-09-14T23:29:25.542Z,98681.59
2022-09-14T23:34:27.206Z,98676.84
2022-09-14T23:39:29.101Z,98683.69
2022-09-14T23:44:30.641Z,98689.63
2022-09-14T23:49:32.167Z,98698.50
2022-09-14T23:54:33.772Z,98691.09
2022-09-14T23:59:35.443Z,98701.91
